Data for 09/01/2008

Time Sea-Level Adjusted Pressure Absolute Pressure Temperature Relative Humidity Dew Point   
(mb) (inHg) (mb) (inHg) (C) (F) (%) (C) (F)
00:05 1012 29.88 841 24.83 7.9 46.2 88 6.1 42.9
00:10 1011 29.85 841 24.83 8 46.3 88 6.2 43.1
00:15 1011 29.85 841 24.83 7.9 46.3 89 6.2 43.1
00:20 1012 29.88 841 24.83 7.7 45.9 89 6 42.8
00:25 1012 29.88 841 24.83 7.7 45.8 89 6 42.8
00:30 1012 29.88 841 24.83 7.4 45.4 90 6 42.7
00:35 1012 29.88 841 24.83 7.4 45.4 90 5.9 42.6
00:40 1012 29.88 841 24.83 7.4 45.3 90 5.8 42.4
00:45 1012 29.88 841 24.83 7.3 45.1 89 5.7 42.2
00:50 1012 29.88 841 24.83 7.4 45.2 90 5.8 42.4
00:55 1012 29.88 841 24.83 7.4 45.3 89 5.7 42.2
01:00 1012 29.88 841 24.83 7.2 45 90 5.7 42.3
01:05 1012 29.88 841 24.83 7.2 44.9 91 5.8 42.5
01:10 1012 29.88 841 24.83 7.1 44.7 92 5.8 42.4
01:15 1012 29.88 841 24.83 6.9 44.5 92 5.7 42.3
01:20 1012 29.88 841 24.83 6.8 44.3 92 5.7 42.2
01:25 1012 29.88 841 24.83 6.8 44.2 92 5.6 42.1
01:30 1012 29.88 841 24.83 6.8 44.2 92 5.6 42.1
01:35 1012 29.88 841 24.83 6.8 44.2 92 5.6 42
01:40 1012 29.88 841 24.83 6.8 44.2 91 5.5 41.9
01:45 1012 29.88 841 24.83 6.7 44.1 92 5.5 42
01:50 1012 29.88 841 24.83 6.8 44.2 92 5.5 41.9
01:55 1012 29.88 841 24.83 6.8 44.2 92 5.6 42
02:00 1012 29.88 841 24.83 6.7 44 92 5.5 41.9
02:05 1012 29.88 841 24.83 6.6 43.8 93 5.5 41.9
02:10 1012 29.88 841 24.83 6.7 44.1 92 5.5 41.8
02:15 1012 29.88 841 24.83 7 44.6 90 5.5 41.9
02:20 1012 29.88 841 24.83 6.9 44.5 91 5.5 41.9
02:25 1012 29.88 841 24.83 6.8 44.2 91 5.4 41.7
02:30 1012 29.88 841 24.83 6.8 44.3 91 5.4 41.8
02:35 1012 29.88 841 24.83 6.8 44.2 91 5.4 41.7
02:40 1012 29.88 841 24.83 6.7 44.1 91 5.3 41.5
02:45 1012 29.88 841 24.83 6.7 44 91 5.2 41.4
02:50 1012 29.88 841 24.83 6.7 44.1 91 5.3 41.5
02:55 1012 29.88 841 24.83 6.7 44.1 91 5.4 41.7
03:00 1012 29.88 841 24.83 6.7 44 91 5.4 41.6
03:05 1012 29.88 841 24.83 6.6 43.9 92 5.4 41.6
03:10 1012 29.88 841 24.83 6.7 44 91 5.4 41.6
03:15 1012 29.88 841 24.83 6.7 44.1 91 5.3 41.5
03:20 1012 29.88 841 24.83 6.8 44.2 91 5.4 41.6
03:25 1012 29.88 842 24.86 6.8 44.2 90 5.3 41.5
03:30 1012 29.88 842 24.86 6.9 44.4 89 5.2 41.4
03:35 1012 29.88 841 24.83 6.9 44.5 90 5.4 41.8
03:40 1012 29.88 842 24.86 6.9 44.5 90 5.4 41.7
03:45 1012 29.88 842 24.86 7.2 44.9 88 5.4 41.6
03:50 1013 29.91 842 24.86 7.3 45.1 87 5.3 41.6
03:55 1013 29.91 842 24.86 7.3 45.1 87 5.3 41.5
04:00 1013 29.91 842 24.86 7.5 45.5 86 5.3 41.5
04:05 1013 29.91 842 24.86 7.3 45.2 87 5.4 41.7
04:10 1012 29.88 842 24.86 7.2 44.9 88 5.3 41.6
04:15 1013 29.91 842 24.86 7.1 44.9 89 5.4 41.7
04:20 1013 29.91 842 24.86 7.1 44.8 88 5.3 41.5
04:25 1013 29.91 842 24.86 7.1 44.8 88 5.2 41.4
04:30 1013 29.91 842 24.86 7.1 44.7 88 5.3 41.5
04:35 1013 29.91 842 24.86 7 44.6 90 5.4 41.7
04:40 1013 29.91 842 24.86 6.7 44.1 90 5.1 41.3
04:45 1013 29.91 842 24.86 6.5 43.7 90 5 41.1
04:50 1013 29.91 842 24.86 6.1 42.9 91 4.8 40.6
04:55 1013 29.91 842 24.86 5.9 42.6 91 4.6 40.2
05:00 1013 29.91 842 24.86 5.8 42.5 91 4.4 40
05:05 1013 29.91 842 24.86 5.9 42.6 90 4.4 40
05:10 1013 29.91 842 24.86 6 42.7 90 4.5 40.1
05:15 1013 29.91 842 24.86 6 42.8 90 4.5 40.1
05:20 1013 29.91 842 24.86 5.8 42.5 92 4.6 40.3
05:25 1013 29.91 842 24.86 5.7 42.3 91 4.4 40
05:30 1013 29.91 842 24.86 5.8 42.5 91 4.5 40.1
05:35 1013 29.91 842 24.86 5.7 42.3 92 4.6 40.2
05:40 1013 29.91 842 24.86 5.7 42.3 92 4.6 40.2
05:45 1013 29.91 842 24.86 5.7 42.3 93 4.6 40.3
05:50 1013 29.91 842 24.86 5.6 42.1 93 4.6 40.3
05:55 1013 29.91 842 24.86 5.6 42 93 4.5 40.1
06:00 1013 29.91 842 24.86 5.3 41.6 94 4.4 39.9
06:05 1013 29.91 842 24.86 5.1 41.1 95 4.3 39.7
06:10 1013 29.91 842 24.86 5 40.9 95 4.2 39.5
06:15 1013 29.91 843 24.89 4.8 40.6 96 4.1 39.4
06:20 1013 29.91 843 24.89 4.7 40.5 95 4 39.3
06:25 1014 29.94 843 24.89 4.6 40.4 96 4 39.3
06:30 1014 29.94 843 24.89 4.7 40.4 95 4 39.2
06:35 1014 29.94 843 24.89 4.5 40.2 96 4 39.1
06:40 1014 29.94 843 24.89 4.5 40.1 96 3.8 38.9
06:45 1014 29.94 843 24.89 4.6 40.3 95 3.9 39
06:50 1014 29.94 843 24.89 4.5 40.1 95 3.8 38.8
06:55 1014 29.94 843 24.89 4.3 39.7 95 3.5 38.3
07:00 1014 29.94 843 24.89 4.1 39.4 96 3.5 38.2
07:05 1014 29.94 843 24.89 4 39.2 96 3.4 38
07:10 1014 29.94 843 24.89 4 39.2 95 3.3 37.9
07:15 1014 29.94 843 24.89 3.9 39.1 96 3.3 37.9
07:20 1014 29.94 844 24.92 3.9 39.1 96 3.4 38
07:25 1014 29.94 844 24.92 3.8 38.8 96 3.3 37.9
07:30 1014 29.94 844 24.92 3.8 38.8 96 3.2 37.8
07:35 1014 29.94 844 24.92 3.7 38.7 96 3.2 37.7
07:40 1014 29.94 843 24.89 3.7 38.7 96 3.2 37.7
07:45 1014 29.94 843 24.89 3.9 38.9 95 3.2 37.7
07:50 1014 29.94 844 24.92 3.6 38.5 96 3.1 37.5
07:55 1015 29.97 844 24.92 3.6 38.5 96 3 37.3
08:00 1015 29.97 844 24.92 3.6 38.4 97 3.1 37.5
08:05 1015 29.97 844 24.92 3.6 38.4 97 3.1 37.6
08:10 1015 29.97 844 24.92 3.5 38.3 96 2.9 37.1
08:15 1015 29.97 844 24.92 3.4 38.2 96 2.9 37.2
08:20 1015 29.97 844 24.92 3.4 38.2 96 2.8 37
08:25 1015 29.97 844 24.92 3.3 38 96 2.8 37
08:30 1015 29.97 845 24.95 3.4 38.1 96 2.8 37
08:35 1015 29.97 845 24.95 3.4 38 95 2.7 36.8
08:40 1015 29.97 845 24.95 3.3 37.9 96 2.7 36.8
08:45 1015 29.97 845 24.95 3.2 37.8 95 2.6 36.6
08:50 1015 29.97 845 24.95 3.2 37.8 95 2.6 36.6
08:55 1015 29.97 845 24.95 3.3 37.9 95 2.5 36.6
09:00 1015 29.97 845 24.95 3.2 37.8 95 2.5 36.5
09:05 1015 29.97 845 24.95 3.3 37.9 95 2.6 36.6
09:10 1015 29.97 845 24.95 3.4 38 94 2.4 36.4
09:15 1016 30 845 24.95 3.3 38 93 2.3 36.1
09:20 1016 30 845 24.95 3.3 37.9 93 2.3 36.1
09:25 1016 30 845 24.95 3.4 38.1 93 2.4 36.2
09:30 1016 30 845 24.95 3.4 38.1 94 2.4 36.4
09:35 1016 30 845 24.95 3.5 38.2 93 2.5 36.5
09:40 1016 30 845 24.95 3.5 38.4 92 2.4 36.3
09:45 1016 30 845 24.95 3.6 38.4 93 2.5 36.5
09:50 1016 30 845 24.95 3.7 38.6 92 2.5 36.4
09:55 1016 30 845 24.95 3.7 38.6 92 2.5 36.5
10:00 1016 30 845 24.95 3.6 38.6 92 2.5 36.5
10:05 1016 30 845 24.95 3.7 38.7 91 2.4 36.4
10:10 1016 30 845 24.95 3.9 39 92 2.7 36.9
10:15 1016 30 845 24.95 4 39.3 91 2.7 36.9
10:20 1016 30 846 24.98 4.2 39.6 90 2.7 36.9
10:25 1016 30 846 24.98 4.2 39.5 90 2.7 36.8
10:30 1016 30 846 24.98 4.1 39.3 90 2.5 36.5
10:35 1016 30 846 24.98 4.1 39.4 90 2.6 36.7
10:40 1016 30 846 24.98 4.1 39.4 90 2.6 36.7
10:45 1016 30 846 24.98 4.1 39.4 89 2.4 36.3
10:50 1017 30.03 846 24.98 4.2 39.5 88 2.4 36.3
10:55 1017 30.03 846 24.98 4.4 39.8 89 2.7 36.9
11:00 1017 30.03 846 24.98 4.4 40 89 2.7 36.9
11:05 1017 30.03 846 24.98 4.5 40.1 88 2.7 36.8
11:10 1017 30.03 846 24.98 4.5 40.2 88 2.8 37
11:15 1017 30.03 846 24.98 4.6 40.3 87 2.6 36.8
11:20 1017 30.03 846 24.98 4.6 40.3 87 2.7 36.8
11:25 1017 30.03 846 24.98 4.8 40.7 85 2.5 36.5
11:30 1017 30.03 846 24.98 5 40.9 84 2.5 36.5
11:35 1017 30.03 847 25.01 4.9 40.8 85 2.6 36.6
11:40 1017 30.03 847 25.01 5.1 41.2 84 2.7 36.8
11:45 1017 30.03 847 25.01 5 41 84 2.5 36.4
11:50 1017 30.03 847 25.01 4.9 40.8 84 2.4 36.4
11:55 1018 30.06 847 25.01 5 40.9 83 2.3 36.1
12:00 1018 30.06 847 25.01 5.1 41.2 83 2.4 36.3
12:05 1018 30.06 847 25.01 5.3 41.6 79 2 35.6
12:10 1018 30.06 847 25.01 5.3 41.5 82 2.5 36.5
12:15 1018 30.06 847 25.01 5.3 41.6 81 2.3 36.2
12:20 1018 30.06 847 25.01 5.4 41.8 79 2.1 35.9
12:25 1018 30.06 847 25.01 5.5 41.9 79 2.2 35.9
12:30 1018 30.06 847 25.01 5.4 41.8 76 1.5 34.7
12:35 1018 30.06 847 25.01 5.6 42 81 2.5 36.5
12:40 1018 30.06 847 25.01 5.9 42.7 80 2.7 36.8
12:45 1018 30.06 847 25.01 6.6 43.9 77 2.8 37.1
12:50 1018 30.06 847 25.01 6.7 44 74 2.3 36.2
12:55 1018 30.06 847 25.01 6.4 43.4 75 2.3 36.1
13:00 1018 30.06 847 25.01 6.3 43.3 73 1.8 35.3
13:05 1018 30.06 847 25.01 6.4 43.5 74 2 35.6
13:10 1018 30.06 847 25.01 6.4 43.5 72 1.7 35.1
13:15 1018 30.06 847 25.01 6.4 43.4 73 1.9 35.4
13:20 1018 30.06 847 25.01 6.6 43.8 75 2.4 36.3
13:25 1018 30.06 847 25.01 6.6 43.9 73 2.1 35.9
13:30 1018 30.06 847 25.01 6.5 43.7 72 1.9 35.3
13:35 1018 30.06 847 25.01 6.4 43.5 70 1.4 34.5
13:40 1018 30.06 848 25.04 6.5 43.8 71 1.7 35.1
13:45 1018 30.06 848 25.04 6.6 43.9 72 1.9 35.4
13:50 1018 30.06 848 25.04 6.9 44.3 70 1.9 35.4
13:55 1018 30.06 848 25.04 6.9 44.5 69 1.7 35.1
14:00 1018 30.06 848 25.04 7 44.6 69 1.8 35.2
14:05 1018 30.06 848 25.04 7 44.5 69 1.6 34.9
14:10 1018 30.06 848 25.04 7 44.6 68 1.5 34.7
14:15 1019 30.09 848 25.04 7.2 45 68 1.8 35.3
14:20 1019 30.09 848 25.04 7.1 44.9 67 1.6 34.8
14:25 1019 30.09 848 25.04 7 44.7 68 1.5 34.8
14:30 1019 30.09 848 25.04 7 44.6 68 1.4 34.6
14:35 1019 30.09 848 25.04 7 44.5 65 0.8 33.4
14:40 1019 30.09 848 25.04 7 44.6 63 0.5 32.9
14:45 1019 30.09 848 25.04 7.1 44.8 64 0.8 33.5
14:50 1019 30.09 848 25.04 7.2 44.9 63 0.6 33.1
14:55 1019 30.09 848 25.04 7 44.7 64 0.7 33.2
15:00 1019 30.09 848 25.04 7 44.6 64 0.7 33.3
15:05 1019 30.09 848 25.04 7.2 45 64 1 33.8
15:10 1019 30.09 849 25.07 7.4 45.3 64 1 33.7
15:15 1019 30.09 849 25.07 7.4 45.3 65 1.3 34.3
15:20 1019 30.09 849 25.07 7.2 45 65 1.1 34
15:25 1020 30.12 849 25.07 7.5 45.5 63 1 33.8
15:30 1020 30.12 849 25.07 7.6 45.6 64 1.2 34.2
15:35 1020 30.12 849 25.07 7.4 45.3 66 1.4 34.6
15:40 1020 30.12 849 25.07 7.5 45.4 65 1.3 34.3
15:45 1020 30.12 849 25.07 7.5 45.6 65 1.3 34.4
15:50 1020 30.12 849 25.07 7.3 45.1 66 1.3 34.3
15:55 1020 30.12 849 25.07 7 44.6 67 1.2 34.2
16:00 1020 30.12 849 25.07 6.8 44.3 68 1.3 34.3
16:05 1020 30.12 849 25.07 7 44.6 68 1.5 34.7
16:10 1020 30.12 849 25.07 6.9 44.4 69 1.5 34.7
16:15 1020 30.12 849 25.07 6.9 44.4 68 1.5 34.7
16:20 1020 30.12 849 25.07 7.2 44.9 65 1.1 34
16:25 1020 30.12 849 25.07 7.2 45 66 1.3 34.3
16:30 1020 30.12 849 25.07 7.4 45.3 66 1.4 34.5
16:35 1020 30.12 849 25.07 7.3 45.1 67 1.6 34.9
16:40 1020 30.12 849 25.07 7.2 44.9 68 1.6 34.9
16:45 1020 30.12 849 25.07 7.1 44.8 67 1.5 34.7
16:50 1020 30.12 850 25.1 7 44.6 69 1.7 35.1
16:55 1020 30.12 850 25.1 7.1 44.7 68 1.5 34.7
17:00 1020 30.12 850 25.1 7.1 44.7 68 1.6 34.9
17:05 1020 30.12 850 25.1 7 44.7 67 1.4 34.5
17:10 1020 30.12 850 25.1 7.2 44.9 68 1.7 35.1
17:15 1021 30.15 850 25.1 7.2 44.9 69 1.9 35.4
17:20 1021 30.15 850 25.1 7.1 44.9 69 1.9 35.5
17:25 1021 30.15 850 25.1 6.9 44.5 70 1.9 35.4
17:30 1021 30.15 850 25.1 6.9 44.5 70 1.9 35.5
17:35 1021 30.15 850 25.1 7 44.6 70 1.9 35.4
17:40 1021 30.15 850 25.1 6.9 44.4 70 1.9 35.3
17:45 1021 30.15 850 25.1 6.8 44.3 70 1.7 35
17:50 1021 30.15 850 25.1 6.7 44.1 70 1.7 35
17:55 1021 30.15 850 25.1 6.9 44.4 69 1.7 35.1
18:00 1021 30.15 850 25.1 7 44.6 70 1.9 35.4
18:05 1021 30.15 850 25.1 7 44.7 69 1.8 35.2
18:10 1021 30.15 850 25.1 7 44.5 70 1.8 35.3
18:15 1021 30.15 850 25.1 6.8 44.2 70 1.8 35.2
18:20 1021 30.15 850 25.1 6.8 44.2 69 1.6 34.9
18:25 1021 30.15 850 25.1 6.7 44.1 71 1.8 35.3
18:30 1021 30.15 850 25.1 6.8 44.2 72 2 35.6
18:35 1021 30.15 851 25.13 6.7 44.1 73 2.3 36.1
18:40 1021 30.15 851 25.13 6.8 44.2 72 2 35.7
18:45 1022 30.18 851 25.13 6.6 43.9 73 2.1 35.8
18:50 1022 30.18 851 25.13 6.6 43.9 73 2 35.7
18:55 1022 30.18 851 25.13 6.6 44 74 2.3 36.1
19:00 1022 30.18 851 25.13 6.6 43.9 74 2.2 36
19:05 1022 30.18 851 25.13 6.6 43.8 75 2.5 36.4
19:10 1022 30.18 851 25.13 6.6 43.8 75 2.5 36.5
19:15 1022 30.18 851 25.13 6.5 43.7 76 2.7 36.8
19:20 1022 30.18 851 25.13 6.5 43.7 77 2.8 37.1
19:25 1022 30.18 851 25.13 6.5 43.8 78 3 37.3
19:30 1022 30.18 851 25.13 6.5 43.8 79 3.1 37.5
19:35 1022 30.18 851 25.13 6.5 43.7 78 3 37.3
19:40 1022 30.18 851 25.13 6.5 43.6 75 2.4 36.4
19:45 1022 30.18 851 25.13 6.4 43.5 76 2.4 36.3
19:50 1022 30.18 851 25.13 6.3 43.4 74 2 35.6
19:55 1022 30.18 852 25.16 6.3 43.3 75 2.1 35.8
20:00 1022 30.18 852 25.16 5.9 42.7 79 2.6 36.6
20:05 1022 30.18 852 25.16 5.6 42 79 2.2 36
20:10 1023 30.21 852 25.16 5.5 41.8 77 1.7 35.1
20:15 1023 30.21 852 25.16 5.6 42.1 74 1.3 34.3
20:20 1023 30.21 852 25.16 5.8 42.4 74 1.5 34.7
20:25 1023 30.21 852 25.16 6 42.7 73 1.6 34.8
20:30 1023 30.21 852 25.16 6.1 43 74 1.8 35.3
20:35 1023 30.21 852 25.16 5.7 42.3 76 1.8 35.2
20:40 1023 30.21 852 25.16 5.6 42.1 75 1.5 34.7
20:45 1023 30.21 852 25.16 5.6 42.1 75 1.5 34.7
20:50 1023 30.21 852 25.16 5.7 42.2 76 1.8 35.2
20:55 1023 30.21 852 25.16 5.8 42.4 76 1.8 35.2
21:00 1023 30.21 852 25.16 5.8 42.4 76 1.9 35.4
21:05 1023 30.21 853 25.19 5.8 42.4 77 2 35.7
21:10 1023 30.21 853 25.19 5.9 42.6 76 2.1 35.8
21:15 1023 30.21 853 25.19 6 42.7 77 2.2 35.9
21:20 1024 30.24 853 25.19 6 42.8 77 2.3 36.2
21:25 1024 30.24 853 25.19 5.8 42.4 80 2.6 36.8
21:30 1024 30.24 853 25.19 5.6 42.1 82 2.7 36.9
21:35 1024 30.24 853 25.19 5.5 41.9 83 2.8 37
21:40 1024 30.24 853 25.19 5.6 42 83 2.8 37.1
21:45 1024 30.24 853 25.19 5.7 42.3 82 2.9 37.2
21:50 1024 30.24 853 25.19 5.6 42.1 82 2.8 37
21:55 1024 30.24 853 25.19 5.5 41.9 83 2.9 37.2
22:00 1024 30.24 853 25.19 5.4 41.6 84 2.9 37.1
22:05 1024 30.24 853 25.19 5.3 41.5 84 2.8 37.1
22:10 1024 30.24 853 25.19 5.4 41.7 82 2.6 36.6
22:15 1024 30.24 853 25.19 5.5 41.9 81 2.5 36.4
22:20 1024 30.24 853 25.19 5.6 42 79 2.3 36.1
22:25 1024 30.24 853 25.19 5.5 41.9 82 2.7 36.8
22:30 1024 30.24 853 25.19 5.3 41.5 83 2.7 36.9
22:35 1024 30.24 853 25.19 5.1 41.1 87 3.1 37.6
22:40 1024 30.24 853 25.19 4.9 40.9 88 3.1 37.5
22:45 1024 30.24 853 25.19 4.9 40.9 88 3.2 37.7
22:50 1024 30.24 853 25.19 4.9 40.8 86 2.8 37
22:55 1024 30.24 853 25.19 4.9 40.9 86 2.9 37.1
23:00 1024 30.24 853 25.19 5 40.9 87 3 37.4
23:05 1024 30.24 853 25.19 4.9 40.9 88 3.1 37.7
23:10 1024 30.24 853 25.19 5 41 88 3.2 37.8
23:15 1024 30.24 853 25.19 5 41.1 87 3.1 37.5
23:20 1024 30.24 853 25.19 5.1 41.2 87 3.1 37.6
23:25 1024 30.24 853 25.19 5.4 41.7 87 3.3 38
23:30 1024 30.24 853 25.19 5.6 42.1 86 3.5 38.3
23:35 1024 30.24 853 25.19 5.7 42.2 86 3.5 38.3
23:40 1024 30.24 853 25.19 5.7 42.3 87 3.8 38.8
23:45 1024 30.24 854 25.22 5.7 42.3 85 3.4 38.2
23:50 1024 30.24 854 25.22 5.7 42.3 88 3.8 38.9
23:55 1024 30.24 854 25.22 5.7 42.2 87 3.7 38.7
24:00 1025 30.27 854 25.22 5.6 42 87 3.6 38.4